createdAt,value
2019-03-18T00:01:03.661Z,4.30
2019-03-18T00:02:19.897Z,4.20
2019-03-18T00:03:36.254Z,4.10
2019-03-18T00:04:52.709Z,4.10
2019-03-18T00:06:09.156Z,4.10
2019-03-18T00:07:25.636Z,4.10
2019-03-18T00:08:42.640Z,4.10
2019-03-18T00:09:59.417Z,4.00
2019-03-18T00:11:15.934Z,4.00
2019-03-18T00:12:32.904Z,4.00
2019-03-18T00:13:49.759Z,4.00
2019-03-18T00:15:06.491Z,4.00
2019-03-18T00:16:23.200Z,4.00
2019-03-18T00:17:39.650Z,3.90
2019-03-18T00:18:56.388Z,3.90
2019-03-18T00:20:12.884Z,3.90
2019-03-18T00:21:29.360Z,3.90
2019-03-18T00:22:45.853Z,3.90
2019-03-18T00:24:02.771Z,3.90
2019-03-18T00:25:19.436Z,3.90
2019-03-18T00:26:36.696Z,3.90
2019-03-18T00:27:53.869Z,3.90
2019-03-18T00:29:10.716Z,3.90
2019-03-18T00:30:27.046Z,3.90
2019-03-18T00:31:43.985Z,3.80
2019-03-18T00:32:59.212Z,3.80
2019-03-18T00:34:23.370Z,3.80
2019-03-18T00:35:47.468Z,3.70
2019-03-18T00:37:04.502Z,3.60
2019-03-18T00:38:20.993Z,3.60
2019-03-18T00:39:38.789Z,3.60
2019-03-18T00:40:55.382Z,3.60
2019-03-18T00:42:12.071Z,3.60
2019-03-18T00:43:28.530Z,3.60
2019-03-18T00:44:44.816Z,3.60
2019-03-18T00:46:01.164Z,3.60
2019-03-18T00:47:17.789Z,3.60
2019-03-18T00:48:34.165Z,3.60
2019-03-18T00:49:50.682Z,3.60
2019-03-18T00:51:07.325Z,3.60
2019-03-18T00:52:23.678Z,3.50
2019-03-18T00:53:40.938Z,3.50
2019-03-18T00:54:57.872Z,3.50
2019-03-18T00:56:14.231Z,3.50
2019-03-18T00:57:30.569Z,3.50
2019-03-18T00:58:47.186Z,3.50
2019-03-18T01:00:03.582Z,3.40
2019-03-18T01:01:20.337Z,3.40
2019-03-18T01:02:37.514Z,3.40
2019-03-18T01:03:54.112Z,3.40
2019-03-18T01:05:10.561Z,3.30
2019-03-18T01:06:27.048Z,3.30
2019-03-18T01:07:43.228Z,3.30
2019-03-18T01:09:07.400Z,3.30
2019-03-18T01:10:24.758Z,3.30
2019-03-18T01:11:39.997Z,3.30
2019-03-18T01:13:04.081Z,3.30
2019-03-18T01:14:20.395Z,3.30
2019-03-18T01:15:36.909Z,3.30
2019-03-18T01:16:53.794Z,3.30
2019-03-18T01:18:10.306Z,3.30
2019-03-18T01:19:26.701Z,3.30
2019-03-18T01:20:43.261Z,3.30
2019-03-18T01:21:59.667Z,3.30
2019-03-18T01:23:16.802Z,3.30
2019-03-18T01:24:33.221Z,3.30
2019-03-18T01:25:49.801Z,3.30
2019-03-18T01:27:06.236Z,3.30
2019-03-18T01:28:22.737Z,3.30
2019-03-18T01:29:39.334Z,3.30
2019-03-18T01:30:55.847Z,3.20
2019-03-18T01:32:14.983Z,3.20
2019-03-18T01:33:31.533Z,3.20
2019-03-18T01:34:49.504Z,3.20
2019-03-18T01:36:06.386Z,3.20
2019-03-18T01:37:22.921Z,3.20
2019-03-18T01:38:39.158Z,3.20
2019-03-18T01:39:55.677Z,3.20
2019-03-18T01:41:12.161Z,3.20
2019-03-18T01:42:29.123Z,3.20
2019-03-18T01:43:45.462Z,3.20
2019-03-18T01:45:01.897Z,3.20
2019-03-18T01:46:18.267Z,3.20
2019-03-18T01:47:34.990Z,3.20
2019-03-18T01:48:52.255Z,3.20
2019-03-18T01:51:24.597Z,3.20
2019-03-18T01:52:41.796Z,3.20
2019-03-18T01:53:58.149Z,3.20
2019-03-18T01:55:15.358Z,3.20
2019-03-18T01:56:31.697Z,3.20
2019-03-18T01:57:48.926Z,3.20
2019-03-18T01:59:05.968Z,3.20
2019-03-18T02:00:21.219Z,3.20
2019-03-18T02:01:45.577Z,3.20
2019-03-18T02:03:02.247Z,3.20
2019-03-18T02:04:19.412Z,3.20
2019-03-18T02:05:36.013Z,3.10
2019-03-18T02:06:52.682Z,3.10
2019-03-18T02:08:09.117Z,3.10
2019-03-18T02:09:14.206Z,3.10
2019-03-18T02:10:19.222Z,3.10
2019-03-18T02:11:24.353Z,3.10
2019-03-18T02:12:29.452Z,3.10
2019-03-18T02:13:34.605Z,3.00
2019-03-18T02:14:39.689Z,3.10
2019-03-18T02:15:53.311Z,3.00
2019-03-18T02:16:51.470Z,3.00
2019-03-18T02:17:56.561Z,3.00
2019-03-18T02:19:01.665Z,2.90
2019-03-18T02:20:07.348Z,2.90
2019-03-18T02:21:12.367Z,3.00
2019-03-18T02:22:17.454Z,3.00
2019-03-18T02:23:22.581Z,3.00
2019-03-18T02:24:27.643Z,3.00
2019-03-18T02:25:32.751Z,3.00
2019-03-18T02:26:37.845Z,3.10
2019-03-18T02:27:42.970Z,3.10
2019-03-18T02:28:48.091Z,3.10
2019-03-18T02:29:53.240Z,3.10
2019-03-18T02:30:58.359Z,3.10
2019-03-18T02:32:03.542Z,3.10
2019-03-18T02:33:08.639Z,3.10
2019-03-18T02:34:13.645Z,3.10
2019-03-18T02:35:18.775Z,3.10
2019-03-18T02:36:23.865Z,3.00
2019-03-18T02:37:28.869Z,3.00
2019-03-18T02:38:33.887Z,3.00
2019-03-18T02:39:39.133Z,3.00
2019-03-18T02:40:44.229Z,3.00
2019-03-18T02:41:49.246Z,3.00
2019-03-18T02:42:54.360Z,3.00
2019-03-18T02:43:59.465Z,3.00
2019-03-18T02:45:04.978Z,2.90
2019-03-18T02:46:10.978Z,3.00
2019-03-18T02:47:16.527Z,2.90
2019-03-18T02:48:21.719Z,2.90
2019-03-18T02:49:26.824Z,2.90
2019-03-18T02:50:31.941Z,2.90
2019-03-18T02:51:36.951Z,2.90
2019-03-18T02:52:42.034Z,2.90
2019-03-18T02:53:47.117Z,2.90
2019-03-18T02:54:52.204Z,2.90
2019-03-18T02:55:57.230Z,2.90
2019-03-18T02:57:02.326Z,2.90
2019-03-18T02:58:07.353Z,2.90
2019-03-18T02:59:12.384Z,2.90
2019-03-18T03:00:17.652Z,2.90
2019-03-18T03:01:22.752Z,2.90
2019-03-18T03:02:27.766Z,2.90
2019-03-18T03:03:32.765Z,2.80
2019-03-18T03:04:37.843Z,2.80
2019-03-18T03:05:42.958Z,2.80
2019-03-18T03:06:48.060Z,2.80
2019-03-18T03:07:53.080Z,2.70
2019-03-18T03:08:58.135Z,2.80
2019-03-18T03:10:03.323Z,2.70
2019-03-18T03:11:08.430Z,2.80
2019-03-18T03:12:13.453Z,2.70
2019-03-18T03:13:19.544Z,2.70
2019-03-18T03:14:24.614Z,2.70
2019-03-18T03:15:29.713Z,2.70
2019-03-18T03:16:34.869Z,2.70
2019-03-18T03:17:39.907Z,2.70
2019-03-18T03:18:44.907Z,2.70
2019-03-18T03:19:50.869Z,2.70
2019-03-18T03:20:55.974Z,2.70
2019-03-18T03:22:01.067Z,2.70
2019-03-18T03:23:07.164Z,2.70
2019-03-18T03:24:12.183Z,2.80
2019-03-18T03:25:17.192Z,2.90
2019-03-18T03:26:22.288Z,2.90
2019-03-18T03:27:27.343Z,2.90
2019-03-18T03:28:32.424Z,3.00
2019-03-18T03:29:37.515Z,3.10
2019-03-18T03:30:42.513Z,3.10
2019-03-18T03:31:47.545Z,3.20
2019-03-18T03:32:52.624Z,3.20
2019-03-18T03:33:57.699Z,3.30
2019-03-18T03:35:02.780Z,3.40
2019-03-18T03:36:07.903Z,3.40
2019-03-18T03:37:12.994Z,3.50
2019-03-18T03:38:18.067Z,3.50
2019-03-18T03:39:23.237Z,3.60
2019-03-18T03:40:28.331Z,3.60
2019-03-18T03:41:34.766Z,3.60
2019-03-18T03:42:39.916Z,3.60
2019-03-18T03:43:45.037Z,3.70
2019-03-18T03:44:50.122Z,3.70
2019-03-18T03:45:55.525Z,3.70
2019-03-18T03:47:00.555Z,3.70
2019-03-18T03:48:05.613Z,3.70
2019-03-18T03:49:10.691Z,3.70
2019-03-18T03:50:16.201Z,3.70
2019-03-18T03:51:21.244Z,3.70
2019-03-18T03:52:26.301Z,3.70
2019-03-18T03:53:31.459Z,3.70
2019-03-18T03:54:36.495Z,3.70
2019-03-18T03:55:41.575Z,3.70
2019-03-18T03:56:46.660Z,3.70
2019-03-18T03:57:52.016Z,3.70
2019-03-18T03:58:57.299Z,3.70
2019-03-18T04:00:04.784Z,3.70
2019-03-18T04:01:09.867Z,3.70
2019-03-18T04:02:15.040Z,3.80
2019-03-18T04:03:20.235Z,3.80
2019-03-18T04:04:26.289Z,3.80
2019-03-18T04:05:31.384Z,3.90
2019-03-18T04:06:36.536Z,3.90
2019-03-18T04:07:41.632Z,3.90
2019-03-18T04:08:46.797Z,4.00
2019-03-18T04:09:51.898Z,3.90
2019-03-18T04:10:56.923Z,4.00
2019-03-18T04:12:03.114Z,4.10
2019-03-18T04:13:08.197Z,4.10
2019-03-18T04:14:13.413Z,4.20
2019-03-18T04:15:18.569Z,4.20
2019-03-18T04:16:23.590Z,4.20
2019-03-18T04:17:28.610Z,4.20
2019-03-18T04:18:33.743Z,4.20
2019-03-18T04:19:38.873Z,4.20
2019-03-18T04:20:43.947Z,4.20
2019-03-18T04:21:50.928Z,4.20
2019-03-18T04:22:55.762Z,4.20
2019-03-18T04:24:00.885Z,4.20
2019-03-18T04:25:06.121Z,4.20
2019-03-18T04:26:11.230Z,4.10
2019-03-18T04:27:16.330Z,4.10
2019-03-18T04:28:21.426Z,4.10
2019-03-18T04:29:26.454Z,4.10
2019-03-18T04:30:31.553Z,4.10
2019-03-18T04:31:36.652Z,4.10
2019-03-18T04:32:42.852Z,4.10
2019-03-18T04:33:47.995Z,4.10
2019-03-18T04:34:53.199Z,4.10
2019-03-18T04:35:58.290Z,4.10
2019-03-18T04:37:03.342Z,4.10
2019-03-18T04:38:08.373Z,4.10
2019-03-18T04:39:13.410Z,4.10
2019-03-18T04:40:18.480Z,4.10
2019-03-18T04:41:23.509Z,4.10
2019-03-18T04:42:28.550Z,4.10
2019-03-18T04:43:33.705Z,4.10
2019-03-18T04:44:38.846Z,4.10
2019-03-18T04:45:44.001Z,4.20
2019-03-18T04:46:49.101Z,4.20
2019-03-18T04:47:54.195Z,4.20
2019-03-18T04:48:59.592Z,4.20
2019-03-18T04:50:04.975Z,4.30
2019-03-18T04:51:10.005Z,4.30
2019-03-18T04:52:15.088Z,4.30
2019-03-18T04:53:20.168Z,4.40
2019-03-18T04:54:25.335Z,4.40
2019-03-18T04:55:30.401Z,4.40
2019-03-18T04:56:35.531Z,4.40
2019-03-18T04:57:40.569Z,4.50
2019-03-18T04:58:46.752Z,4.50
2019-03-18T04:59:51.888Z,4.50
2019-03-18T05:00:57.066Z,4.60
2019-03-18T05:02:02.110Z,4.60
2019-03-18T05:03:07.172Z,4.70
2019-03-18T05:04:12.204Z,4.70
2019-03-18T05:05:17.257Z,4.70
2019-03-18T05:06:22.393Z,4.70
2019-03-18T05:07:27.438Z,4.70
2019-03-18T05:08:32.544Z,4.80
2019-03-18T05:09:37.672Z,4.80
2019-03-18T05:10:42.819Z,4.80
2019-03-18T05:11:47.947Z,4.80
2019-03-18T05:12:53.062Z,4.80
2019-03-18T05:13:58.275Z,4.90
2019-03-18T05:15:03.390Z,4.90
2019-03-18T05:16:08.491Z,4.90
2019-03-18T05:17:25.885Z,5.00
2019-03-18T05:18:20.291Z,5.00
2019-03-18T05:19:25.303Z,5.00
2019-03-18T05:20:30.416Z,5.10
2019-03-18T05:21:35.533Z,5.10
2019-03-18T05:22:40.661Z,5.10
2019-03-18T05:23:45.790Z,5.10
2019-03-18T05:24:50.961Z,5.20
2019-03-18T05:25:56.216Z,5.20
2019-03-18T05:27:01.287Z,5.10
2019-03-18T05:28:06.527Z,5.10
2019-03-18T05:29:12.957Z,5.20
2019-03-18T05:30:18.112Z,5.20
2019-03-18T05:31:23.221Z,5.10
2019-03-18T05:32:28.380Z,5.10
2019-03-18T05:33:33.397Z,5.00
2019-03-18T05:34:40.040Z,5.00
2019-03-18T05:35:45.252Z,5.00
2019-03-18T05:36:50.800Z,4.90
2019-03-18T05:37:55.906Z,4.90
2019-03-18T05:39:05.609Z,4.90
2019-03-18T05:40:10.758Z,4.80
2019-03-18T05:41:18.687Z,4.80
2019-03-18T05:42:23.833Z,4.80
2019-03-18T05:43:30.096Z,4.80
2019-03-18T05:44:35.115Z,4.80
2019-03-18T05:45:40.240Z,4.80
2019-03-18T05:46:45.346Z,4.80
2019-03-18T05:47:50.393Z,4.70
2019-03-18T05:48:55.490Z,4.80
2019-03-18T05:50:01.657Z,4.80
2019-03-18T05:51:06.833Z,4.90
2019-03-18T05:52:11.865Z,4.90
2019-03-18T05:53:17.021Z,4.90
2019-03-18T05:54:22.036Z,5.00
2019-03-18T05:55:27.061Z,5.00
2019-03-18T05:56:32.168Z,5.00
2019-03-18T05:57:37.251Z,5.10
2019-03-18T05:58:42.517Z,5.00
2019-03-18T05:59:47.541Z,5.00
2019-03-18T06:00:52.863Z,5.00
2019-03-18T06:01:58.016Z,5.10
2019-03-18T06:03:03.161Z,5.20
2019-03-18T06:04:08.229Z,5.20
2019-03-18T06:05:13.368Z,5.10
2019-03-18T06:06:18.469Z,5.20
2019-03-18T06:07:23.477Z,5.20
2019-03-18T06:08:28.637Z,5.30
2019-03-18T06:09:33.801Z,5.30
2019-03-18T06:10:38.903Z,5.30
2019-03-18T06:11:44.073Z,5.40
2019-03-18T06:12:49.177Z,5.40
2019-03-18T06:13:56.506Z,5.40
2019-03-18T06:15:01.001Z,5.50
2019-03-18T06:16:06.106Z,5.50
2019-03-18T06:17:11.175Z,5.60
2019-03-18T06:18:16.277Z,5.60
2019-03-18T06:19:21.302Z,5.60
2019-03-18T06:20:26.441Z,5.60
2019-03-18T06:21:31.453Z,5.70
2019-03-18T06:22:36.580Z,5.70
2019-03-18T06:23:41.721Z,5.80
2019-03-18T06:24:46.817Z,5.80
2019-03-18T06:25:51.921Z,5.80
2019-03-18T06:26:57.017Z,5.80
2019-03-18T06:28:02.231Z,5.80
2019-03-18T06:29:07.365Z,5.80
2019-03-18T06:30:12.508Z,5.80
2019-03-18T06:31:17.599Z,5.80
2019-03-18T06:32:22.709Z,5.90
2019-03-18T06:33:27.784Z,5.90
2019-03-18T06:34:32.882Z,5.90
2019-03-18T06:35:38.030Z,5.90
2019-03-18T06:36:43.041Z,5.90
2019-03-18T06:37:48.151Z,5.90
2019-03-18T06:38:53.214Z,5.90
2019-03-18T06:39:58.396Z,6.00
2019-03-18T06:41:03.572Z,6.00
2019-03-18T06:42:08.710Z,6.10
2019-03-18T06:43:13.878Z,6.10
2019-03-18T06:44:19.060Z,6.10
2019-03-18T06:45:24.151Z,6.20
2019-03-18T06:46:29.256Z,6.20
2019-03-18T06:47:34.357Z,6.20
2019-03-18T06:48:39.416Z,6.20
2019-03-18T06:49:44.545Z,6.20
2019-03-18T06:50:49.575Z,6.20
2019-03-18T06:51:54.635Z,6.30
2019-03-18T06:52:59.763Z,6.30
2019-03-18T06:54:04.932Z,6.30
2019-03-18T06:55:10.030Z,6.30
2019-03-18T06:56:15.262Z,6.30
2019-03-18T06:57:20.281Z,6.40
2019-03-18T06:58:25.384Z,6.40
2019-03-18T06:59:30.521Z,6.40
2019-03-18T07:00:35.651Z,6.40
2019-03-18T07:01:40.766Z,6.50
2019-03-18T07:02:45.882Z,6.50
2019-03-18T07:03:51.137Z,6.50
2019-03-18T07:04:56.216Z,6.50
2019-03-18T07:06:01.359Z,6.60
2019-03-18T07:07:06.493Z,6.60
2019-03-18T07:08:11.692Z,6.60
2019-03-18T07:09:16.812Z,6.60
2019-03-18T07:10:21.890Z,6.70
2019-03-18T07:11:30.096Z,6.60
2019-03-18T07:12:35.218Z,6.60
2019-03-18T07:13:40.354Z,6.70
2019-03-18T07:14:45.467Z,6.70
2019-03-18T07:15:50.560Z,6.80
2019-03-18T07:16:55.683Z,6.80
2019-03-18T07:18:00.705Z,6.80
2019-03-18T07:19:05.728Z,6.80
2019-03-18T07:20:10.962Z,6.90
2019-03-18T07:21:15.969Z,6.90
2019-03-18T07:22:21.057Z,6.90
2019-03-18T07:23:26.171Z,7.00
2019-03-18T07:24:31.249Z,7.00
2019-03-18T07:25:36.375Z,7.10
2019-03-18T07:26:41.520Z,7.10
2019-03-18T07:27:46.586Z,7.20
2019-03-18T07:28:51.723Z,7.30
2019-03-18T07:29:57.802Z,7.30
2019-03-18T07:31:02.928Z,7.40
2019-03-18T07:32:08.069Z,7.50
2019-03-18T07:33:13.242Z,7.60
2019-03-18T07:34:18.541Z,7.60
2019-03-18T07:35:23.686Z,7.70
2019-03-18T07:36:28.950Z,7.80
2019-03-18T07:37:34.053Z,7.90
2019-03-18T07:38:39.192Z,8.00
2019-03-18T07:39:44.224Z,8.00
2019-03-18T07:40:49.308Z,8.10
2019-03-18T07:41:54.336Z,8.20
2019-03-18T07:42:59.592Z,8.20
2019-03-18T07:44:04.608Z,8.20
2019-03-18T07:45:10.378Z,8.30
2019-03-18T07:46:15.602Z,8.30
2019-03-18T07:47:20.686Z,8.20
2019-03-18T07:48:30.936Z,8.10
2019-03-18T07:49:32.623Z,8.10
2019-03-18T07:50:38.877Z,8.20
2019-03-18T07:51:44.002Z,8.20
2019-03-18T07:52:49.203Z,8.20
2019-03-18T07:53:54.297Z,8.20
2019-03-18T07:54:59.409Z,8.20
2019-03-18T07:56:04.528Z,8.30
2019-03-18T07:57:09.678Z,8.30
2019-03-18T07:58:14.797Z,8.30
2019-03-18T07:59:19.932Z,8.40
2019-03-18T08:00:25.032Z,8.30
2019-03-18T08:01:30.150Z,8.40
2019-03-18T08:02:35.306Z,8.40
2019-03-18T08:03:40.480Z,8.60
2019-03-18T08:04:45.592Z,8.50
2019-03-18T08:05:50.623Z,8.70
2019-03-18T08:06:55.688Z,8.80
2019-03-18T08:08:00.825Z,9.00
2019-03-18T08:09:08.794Z,9.40
2019-03-18T08:10:24.001Z,10.30
2019-03-18T08:11:48.182Z,11.40
2019-03-18T08:13:05.045Z,13.00
2019-03-18T08:14:22.849Z,14.50
2019-03-18T08:15:39.549Z,15.40
2019-03-18T08:16:56.129Z,16.50
2019-03-18T08:18:12.536Z,18.00
2019-03-18T08:19:29.253Z,18.70
2019-03-18T08:20:45.820Z,18.70
2019-03-18T08:22:02.253Z,18.20
2019-03-18T08:23:19.638Z,17.80
2019-03-18T08:24:35.960Z,17.80
2019-03-18T08:25:52.473Z,17.70
2019-03-18T08:27:10.294Z,17.60
2019-03-18T08:28:25.436Z,17.70
2019-03-18T08:29:49.510Z,18.10
2019-03-18T08:31:06.618Z,18.50
2019-03-18T08:32:23.094Z,18.40
2019-03-18T08:33:40.320Z,18.40
2019-03-18T08:34:56.693Z,18.20
2019-03-18T08:36:13.229Z,17.70
2019-03-18T08:37:29.757Z,17.10
2019-03-18T08:38:46.297Z,16.70
2019-03-18T08:40:02.948Z,16.10
2019-03-18T08:41:19.237Z,15.80
2019-03-18T08:42:35.617Z,15.50
2019-03-18T08:43:52.085Z,15.00
2019-03-18T08:45:08.991Z,14.40
2019-03-18T08:46:25.649Z,14.40
2019-03-18T08:47:42.055Z,14.30
2019-03-18T08:48:59.197Z,14.20
2019-03-18T08:50:15.930Z,13.90
2019-03-18T08:51:33.059Z,13.70
2019-03-18T08:52:49.480Z,13.70
2019-03-18T08:54:05.875Z,14.40
2019-03-18T08:55:22.408Z,15.20
2019-03-18T08:56:38.701Z,15.70
2019-03-18T08:57:55.060Z,16.40
2019-03-18T08:59:11.632Z,16.80
2019-03-18T09:00:27.876Z,17.20
2019-03-18T09:01:44.228Z,17.80
2019-03-18T09:03:00.550Z,18.80
2019-03-18T09:04:19.940Z,19.10
2019-03-18T09:05:36.696Z,19.00
2019-03-18T09:06:53.566Z,18.50
2019-03-18T09:08:10.005Z,18.00
2019-03-18T09:09:26.610Z,17.60
2019-03-18T09:10:43.088Z,17.30
2019-03-18T09:11:59.431Z,17.00
2019-03-18T09:13:14.626Z,16.50
2019-03-18T09:15:53.857Z,15.60
2019-03-18T09:16:58.970Z,15.30
2019-03-18T09:18:04.079Z,15.00
2019-03-18T09:19:09.383Z,14.60
2019-03-18T09:20:14.775Z,14.30
2019-03-18T09:21:19.892Z,14.20
2019-03-18T09:22:25.003Z,14.00
2019-03-18T09:23:30.124Z,13.90
2019-03-18T09:24:35.168Z,13.70
2019-03-18T09:25:40.259Z,13.50
2019-03-18T09:26:45.364Z,13.30
2019-03-18T09:27:50.460Z,13.20
2019-03-18T09:28:55.568Z,13.30
2019-03-18T09:30:00.694Z,13.30
2019-03-18T09:31:05.875Z,13.50
2019-03-18T09:32:11.056Z,13.60
2019-03-18T09:33:16.180Z,13.80
2019-03-18T09:34:21.277Z,13.90
2019-03-18T09:35:26.372Z,14.00
2019-03-18T09:36:31.469Z,14.00
2019-03-18T09:37:36.574Z,14.00
2019-03-18T09:38:41.694Z,14.20
2019-03-18T09:39:46.952Z,14.40
2019-03-18T09:40:52.125Z,14.50
2019-03-18T09:41:57.252Z,14.90
2019-03-18T09:43:02.379Z,15.10
2019-03-18T09:44:07.474Z,15.30
2019-03-18T09:45:12.594Z,15.40
2019-03-18T09:46:17.612Z,15.50
2019-03-18T09:47:22.715Z,15.80
2019-03-18T09:48:27.878Z,16.20
2019-03-18T09:49:32.961Z,16.80
2019-03-18T09:50:39.213Z,17.50
2019-03-18T09:51:44.323Z,18.10
2019-03-18T09:52:49.437Z,18.90
2019-03-18T09:53:54.566Z,20.00
2019-03-18T09:54:59.683Z,21.30
2019-03-18T09:56:05.874Z,22.40
2019-03-18T09:57:10.966Z,23.50
2019-03-18T09:58:16.150Z,24.40
2019-03-18T09:59:21.269Z,24.80
2019-03-18T10:00:26.346Z,25.20
2019-03-18T10:01:31.458Z,25.60
2019-03-18T10:02:36.564Z,26.50
2019-03-18T10:03:41.677Z,26.90
2019-03-18T10:04:49.604Z,26.50
2019-03-18T10:05:54.629Z,26.00
2019-03-18T10:06:59.733Z,26.00
2019-03-18T10:08:04.870Z,26.10
2019-03-18T10:09:10.192Z,25.90
2019-03-18T10:10:15.415Z,26.40
2019-03-18T10:11:20.469Z,26.50
2019-03-18T10:12:25.591Z,25.80
2019-03-18T10:13:30.704Z,25.50
2019-03-18T10:14:35.734Z,25.60
2019-03-18T10:15:40.854Z,25.90
2019-03-18T10:16:45.917Z,26.10
2019-03-18T10:17:51.017Z,26.40
2019-03-18T10:18:56.068Z,26.90
2019-03-18T10:20:01.169Z,27.10
2019-03-18T10:21:06.295Z,27.40
2019-03-18T10:22:11.322Z,27.70
2019-03-18T10:23:16.777Z,27.90
2019-03-18T10:24:21.837Z,27.90
2019-03-18T10:25:26.960Z,28.30
2019-03-18T10:26:32.076Z,28.60
2019-03-18T10:27:37.856Z,28.90
2019-03-18T10:28:43.214Z,29.30
2019-03-18T10:29:48.346Z,29.10
2019-03-18T10:30:53.592Z,29.40
2019-03-18T10:31:58.829Z,29.20
2019-03-18T10:33:03.973Z,29.10
2019-03-18T10:34:09.077Z,29.00
2019-03-18T10:35:14.389Z,28.80
2019-03-18T10:36:19.485Z,28.90
2019-03-18T10:37:24.592Z,28.80
2019-03-18T10:38:29.710Z,28.20
2019-03-18T10:39:34.825Z,27.90
2019-03-18T10:40:39.949Z,27.90
2019-03-18T10:41:44.972Z,27.90
2019-03-18T10:42:50.033Z,27.80
2019-03-18T10:43:56.335Z,27.40
2019-03-18T10:45:01.421Z,26.60
2019-03-18T10:46:06.438Z,26.30
2019-03-18T10:47:11.466Z,26.40
2019-03-18T10:48:16.623Z,26.30
2019-03-18T10:49:21.624Z,25.80
2019-03-18T10:50:26.762Z,25.60
2019-03-18T10:51:32.115Z,25.50
2019-03-18T10:52:38.525Z,25.20
2019-03-18T10:53:44.709Z,24.50
2019-03-18T10:54:50.015Z,24.40
2019-03-18T10:56:06.990Z,23.80
2019-03-18T10:57:02.034Z,23.50
2019-03-18T10:58:07.065Z,23.00
2019-03-18T10:59:12.220Z,22.60
2019-03-18T11:00:17.408Z,22.30
2019-03-18T11:01:22.565Z,21.90
2019-03-18T11:02:27.717Z,21.50
2019-03-18T11:03:32.981Z,21.00
2019-03-18T11:04:38.158Z,20.50
2019-03-18T11:05:43.281Z,19.80
2019-03-18T11:06:48.410Z,19.20
2019-03-18T11:07:53.553Z,18.60
2019-03-18T11:08:58.660Z,18.10
2019-03-18T11:10:04.029Z,17.80
2019-03-18T11:11:09.248Z,17.40
2019-03-18T11:12:14.424Z,17.10
2019-03-18T11:13:19.555Z,16.80
2019-03-18T11:14:24.679Z,16.50
2019-03-18T11:15:29.746Z,16.40
2019-03-18T11:16:34.853Z,16.10
2019-03-18T11:17:39.972Z,15.70
2019-03-18T11:18:45.722Z,15.60
2019-03-18T11:19:58.425Z,15.40
2019-03-18T11:20:57.658Z,15.30
2019-03-18T11:22:02.700Z,15.10
2019-03-18T11:23:07.817Z,15.00
2019-03-18T11:24:12.938Z,14.90
2019-03-18T11:25:18.085Z,14.80
2019-03-18T11:26:23.093Z,14.60
2019-03-18T11:27:28.180Z,14.50
2019-03-18T11:28:33.396Z,14.40
2019-03-18T11:29:38.495Z,14.30
2019-03-18T11:30:43.720Z,14.20
2019-03-18T11:31:48.860Z,14.10
2019-03-18T11:32:54.006Z,14.00
2019-03-18T11:33:59.124Z,13.90
2019-03-18T11:35:04.270Z,13.80
2019-03-18T11:36:09.356Z,13.70
2019-03-18T11:37:14.379Z,13.60
2019-03-18T11:38:19.455Z,13.60
2019-03-18T11:39:24.533Z,13.60
2019-03-18T11:40:29.692Z,13.50
2019-03-18T11:41:34.817Z,13.60
2019-03-18T11:42:40.044Z,13.70
2019-03-18T11:43:45.171Z,13.70
2019-03-18T11:44:50.403Z,13.70
2019-03-18T11:45:55.479Z,13.70
2019-03-18T11:47:00.583Z,13.60
2019-03-18T11:48:05.705Z,13.60
2019-03-18T11:49:10.820Z,13.50
2019-03-18T11:50:16.952Z,13.60
2019-03-18T11:51:22.055Z,13.50
2019-03-18T11:52:27.193Z,13.50
2019-03-18T11:53:32.301Z,13.30
2019-03-18T11:54:37.457Z,13.20
2019-03-18T11:55:42.524Z,13.30
2019-03-18T11:56:48.705Z,13.40
2019-03-18T11:57:53.835Z,13.50
2019-03-18T11:58:58.946Z,13.60
2019-03-18T12:00:05.791Z,13.70
2019-03-18T12:01:10.972Z,13.70
2019-03-18T12:02:27.181Z,13.70
2019-03-18T12:03:22.817Z,13.80
2019-03-18T12:04:28.008Z,13.80
2019-03-18T12:05:33.181Z,13.80
2019-03-18T12:06:38.338Z,13.70
2019-03-18T12:07:43.391Z,13.70
2019-03-18T12:08:48.492Z,13.70
2019-03-18T12:09:53.616Z,13.70
2019-03-18T12:10:58.774Z,13.80
2019-03-18T12:12:03.926Z,13.80
2019-03-18T12:13:08.951Z,13.90
2019-03-18T12:14:14.152Z,14.00
2019-03-18T12:15:21.596Z,14.00
2019-03-18T12:16:27.217Z,13.90
2019-03-18T12:17:32.255Z,13.90
2019-03-18T12:18:37.357Z,13.90
2019-03-18T12:19:42.486Z,13.70
2019-03-18T12:20:47.630Z,13.70
2019-03-18T12:21:52.753Z,13.60
2019-03-18T12:22:57.873Z,13.50
2019-03-18T12:24:03.042Z,13.50
2019-03-18T12:25:08.460Z,13.60
2019-03-18T12:26:13.609Z,13.60
2019-03-18T12:27:18.755Z,13.70
2019-03-18T12:28:24.312Z,13.70
2019-03-18T12:29:29.449Z,13.80
2019-03-18T12:30:34.518Z,13.90
2019-03-18T12:31:39.661Z,14.00
2019-03-18T12:32:44.760Z,14.00
2019-03-18T12:33:49.877Z,14.00
2019-03-18T12:34:55.030Z,13.80
2019-03-18T12:36:00.149Z,13.80
2019-03-18T12:37:05.261Z,13.80
2019-03-18T12:38:10.265Z,13.80
2019-03-18T12:39:15.396Z,13.70
2019-03-18T12:40:20.526Z,13.70
2019-03-18T12:41:25.633Z,13.80
2019-03-18T12:42:30.769Z,13.80
2019-03-18T12:43:35.895Z,13.90
2019-03-18T12:44:40.952Z,14.10
2019-03-18T12:45:46.098Z,14.30
2019-03-18T12:46:51.257Z,14.30
2019-03-18T12:47:56.400Z,14.40
2019-03-18T12:49:01.564Z,14.60
2019-03-18T12:50:09.095Z,14.60
2019-03-18T12:51:14.255Z,14.50
2019-03-18T12:52:19.376Z,14.50
2019-03-18T12:53:24.395Z,14.40
2019-03-18T12:54:29.500Z,14.40
2019-03-18T12:55:34.598Z,14.40
2019-03-18T12:56:39.753Z,14.50
2019-03-18T12:57:44.930Z,14.50
2019-03-18T12:58:50.082Z,14.60
2019-03-18T12:59:55.228Z,14.60
2019-03-18T13:01:12.097Z,14.60
2019-03-18T13:02:07.410Z,14.70
2019-03-18T13:03:12.502Z,14.70
2019-03-18T13:04:17.584Z,14.70
2019-03-18T13:05:22.592Z,14.70
2019-03-18T13:06:27.715Z,14.70
2019-03-18T13:07:32.881Z,14.70
2019-03-18T13:08:37.946Z,14.70
2019-03-18T13:09:43.125Z,14.80
2019-03-18T13:10:48.216Z,14.80
2019-03-18T13:11:53.328Z,14.80
2019-03-18T13:12:58.480Z,14.80
2019-03-18T13:14:03.689Z,14.90
2019-03-18T13:15:10.496Z,15.00
2019-03-18T13:16:18.098Z,15.00
2019-03-18T13:17:22.485Z,15.10
2019-03-18T13:18:27.596Z,15.20
2019-03-18T13:19:32.729Z,15.30
2019-03-18T13:20:37.811Z,15.30
2019-03-18T13:21:42.949Z,15.30
2019-03-18T13:22:48.057Z,15.30
2019-03-18T13:23:53.188Z,15.20
2019-03-18T13:24:58.345Z,15.30
2019-03-18T13:26:03.473Z,15.30
2019-03-18T13:27:08.609Z,15.20
2019-03-18T13:28:13.729Z,15.10
2019-03-18T13:29:18.864Z,14.90
2019-03-18T13:30:24.005Z,14.80
2019-03-18T13:31:29.062Z,14.60
2019-03-18T13:32:34.203Z,14.30
2019-03-18T13:33:41.571Z,14.30
2019-03-18T13:34:46.133Z,14.30
2019-03-18T13:35:51.266Z,14.10
2019-03-18T13:36:56.381Z,14.00
2019-03-18T13:38:01.517Z,13.90
2019-03-18T13:39:08.992Z,13.80
2019-03-18T13:40:14.279Z,13.80
2019-03-18T13:41:19.374Z,13.90
2019-03-18T13:42:24.508Z,13.90
2019-03-18T13:43:29.580Z,13.90
2019-03-18T13:44:34.706Z,13.90
2019-03-18T13:45:39.833Z,13.90
2019-03-18T13:46:45.001Z,13.90
2019-03-18T13:47:50.063Z,13.90
2019-03-18T13:48:55.449Z,13.90
2019-03-18T13:50:00.603Z,13.80
2019-03-18T13:51:05.806Z,13.80
2019-03-18T13:52:10.893Z,13.80
2019-03-18T13:53:16.020Z,13.80
2019-03-18T13:54:21.158Z,13.70
2019-03-18T13:55:26.269Z,13.60
2019-03-18T13:56:31.389Z,13.50
2019-03-18T13:57:36.801Z,13.50
2019-03-18T13:58:41.927Z,13.50
2019-03-18T13:59:47.033Z,13.50
2019-03-18T14:00:52.155Z,13.40
2019-03-18T14:01:58.304Z,13.40
2019-03-18T14:03:03.344Z,13.40
2019-03-18T14:04:08.501Z,13.30
2019-03-18T14:05:14.096Z,13.30
2019-03-18T14:06:19.274Z,13.20
2019-03-18T14:07:24.352Z,13.00
2019-03-18T14:08:29.490Z,12.90
2019-03-18T14:09:34.601Z,12.80
2019-03-18T14:10:39.705Z,12.60
2019-03-18T14:11:44.891Z,12.40
2019-03-18T14:12:50.013Z,12.40
2019-03-18T14:13:55.166Z,12.30
2019-03-18T14:15:00.368Z,12.20
2019-03-18T14:16:05.781Z,12.10
2019-03-18T14:17:10.919Z,12.00
2019-03-18T14:18:16.096Z,11.80
2019-03-18T14:19:21.217Z,11.60
2019-03-18T14:20:26.365Z,11.60
2019-03-18T14:21:33.564Z,11.50
2019-03-18T14:22:38.357Z,11.30
2019-03-18T14:23:43.573Z,11.20
2019-03-18T14:24:48.712Z,11.10
2019-03-18T14:25:54.827Z,11.10
2019-03-18T14:26:59.865Z,11.20
2019-03-18T14:28:07.369Z,11.20
2019-03-18T14:29:12.424Z,11.20
2019-03-18T14:30:17.626Z,11.30
2019-03-18T14:31:22.752Z,11.30
2019-03-18T14:32:27.800Z,11.30
2019-03-18T14:33:32.925Z,11.40
2019-03-18T14:34:38.113Z,11.40
2019-03-18T14:35:43.148Z,11.40
2019-03-18T14:36:48.242Z,11.30
2019-03-18T14:37:53.348Z,11.20
2019-03-18T14:38:59.562Z,11.10
2019-03-18T14:40:04.980Z,11.00
2019-03-18T14:41:10.113Z,10.90
2019-03-18T14:42:15.227Z,10.80
2019-03-18T14:43:20.324Z,10.70
2019-03-18T14:44:25.564Z,10.80
2019-03-18T14:45:30.661Z,10.80
2019-03-18T14:46:35.770Z,10.90
2019-03-18T14:47:40.948Z,10.90